createdAt,value
2023-03-11T00:00:25.431Z,3.07
2023-03-11T00:01:25.406Z,3.07
2023-03-11T00:02:25.498Z,3.07
2023-03-11T00:03:25.367Z,3.06
2023-03-11T00:04:24.691Z,3.06
2023-03-11T00:05:25.440Z,3.07
2023-03-11T00:06:25.358Z,3.06
2023-03-11T00:07:24.656Z,3.06
2023-03-11T00:08:25.322Z,3.06
2023-03-11T00:09:25.329Z,3.05
2023-03-11T00:10:24.618Z,3.04
2023-03-11T00:11:24.619Z,3.04
2023-03-11T00:12:25.301Z,3.04
2023-03-11T00:13:24.616Z,3.03
2023-03-11T00:14:25.269Z,3.02
2023-03-11T00:15:25.518Z,3.00
2023-03-11T00:16:25.529Z,2.99
2023-03-11T00:17:25.501Z,2.96
2023-03-11T00:18:25.525Z,2.94
2023-03-11T00:19:25.228Z,2.91
2023-03-11T00:20:25.471Z,2.89
2023-03-11T00:21:25.460Z,2.87
2023-03-11T00:22:25.451Z,2.85
2023-03-11T00:23:25.456Z,2.83
2023-03-11T00:24:25.432Z,2.81
2023-03-11T00:25:25.169Z,2.80
2023-03-11T00:26:25.150Z,2.77
2023-03-11T00:27:25.401Z,2.75
2023-03-11T00:28:25.113Z,2.74
2023-03-11T00:29:25.381Z,2.72
2023-03-11T00:30:25.372Z,2.71
2023-03-11T00:31:25.109Z,2.70
2023-03-11T00:32:25.379Z,2.69
2023-03-11T00:33:25.355Z,2.68
2023-03-11T00:34:25.073Z,2.67
2023-03-11T00:35:25.321Z,2.66
2023-03-11T00:36:25.043Z,2.64
2023-03-11T00:37:32.880Z,2.62
2023-03-11T00:38:25.337Z,2.61
2023-03-11T00:39:25.270Z,2.61
2023-03-11T00:40:25.015Z,2.60
2023-03-11T00:41:24.990Z,2.59
2023-03-11T00:42:24.295Z,2.60
2023-03-11T00:43:24.957Z,2.61
2023-03-11T00:44:24.962Z,2.62
2023-03-11T00:45:24.951Z,2.63
2023-03-11T00:46:24.984Z,2.64
2023-03-11T00:47:24.920Z,2.66
2023-03-11T00:48:24.902Z,2.66
2023-03-11T00:49:24.901Z,2.67
2023-03-11T00:50:24.896Z,2.68
2023-03-11T00:51:24.219Z,2.69
2023-03-11T00:52:24.882Z,2.69
2023-03-11T00:53:24.849Z,2.70
2023-03-11T00:54:24.175Z,2.69
2023-03-11T00:55:24.842Z,2.68
2023-03-11T00:56:24.832Z,2.67
2023-03-11T00:57:24.823Z,2.68
2023-03-11T00:58:24.798Z,2.67
2023-03-11T00:59:24.806Z,2.67
2023-03-11T01:00:26.040Z,2.67
2023-03-11T01:01:24.838Z,2.68
2023-03-11T01:02:24.781Z,2.69
2023-03-11T01:03:24.742Z,2.70
2023-03-11T01:04:24.068Z,2.72
2023-03-11T01:05:24.743Z,2.73
2023-03-11T01:06:26.106Z,2.75
2023-03-11T01:07:24.719Z,2.79
2023-03-11T01:08:24.051Z,2.81
2023-03-11T01:09:24.060Z,2.83
2023-03-11T01:10:24.693Z,2.86
2023-03-11T01:11:24.682Z,2.87
2023-03-11T01:12:23.981Z,2.89
2023-03-11T01:13:24.649Z,2.90
2023-03-11T01:14:24.677Z,2.91
2023-03-11T01:15:24.636Z,2.92
2023-03-11T01:16:24.032Z,2.93
2023-03-11T01:17:23.944Z,2.93
2023-03-11T01:18:24.611Z,2.93
2023-03-11T01:19:23.925Z,2.93
2023-03-11T01:20:24.591Z,2.93
2023-03-11T01:21:24.573Z,2.93
2023-03-11T01:22:23.898Z,2.92
2023-03-11T01:23:24.564Z,2.92
2023-03-11T01:24:23.874Z,2.92
2023-03-11T01:25:24.534Z,2.92
2023-03-11T01:26:24.526Z,2.93
2023-03-11T01:27:24.515Z,2.93
2023-03-11T01:28:24.507Z,2.93
2023-03-11T01:29:24.497Z,2.93
2023-03-11T01:30:24.483Z,2.95
2023-03-11T01:31:24.530Z,2.95
2023-03-11T01:32:24.474Z,2.95
2023-03-11T01:33:24.455Z,2.95
2023-03-11T01:34:24.426Z,2.94
2023-03-11T01:35:24.449Z,2.95
2023-03-11T01:36:24.417Z,2.95
2023-03-11T01:37:24.416Z,2.94
2023-03-11T01:38:25.145Z,2.92
2023-03-11T01:39:24.376Z,2.90
2023-03-11T01:40:24.382Z,2.87
2023-03-11T01:41:23.678Z,2.84
2023-03-11T01:42:24.355Z,2.81
2023-03-11T01:43:24.603Z,2.79
2023-03-11T01:44:23.686Z,2.75
2023-03-11T01:45:24.332Z,2.73
2023-03-11T01:46:24.333Z,2.73
2023-03-11T01:47:24.308Z,2.72
2023-03-11T01:48:24.309Z,2.70
2023-03-11T01:49:24.555Z,2.69
2023-03-11T01:50:23.593Z,2.68
2023-03-11T01:51:23.616Z,2.68
2023-03-11T01:52:23.593Z,2.67
2023-03-11T01:53:23.553Z,2.68
2023-03-11T01:54:24.214Z,2.69
2023-03-11T01:55:24.224Z,2.71
2023-03-11T01:56:24.205Z,2.71
2023-03-11T01:57:24.227Z,2.70
2023-03-11T01:58:24.206Z,2.71
2023-03-11T01:59:24.181Z,2.72
2023-03-11T02:00:24.173Z,2.74
2023-03-11T02:01:23.490Z,2.74
2023-03-11T02:02:23.485Z,2.77
2023-03-11T02:03:24.145Z,2.79
2023-03-11T02:04:23.493Z,2.80
2023-03-11T02:05:23.465Z,2.81
2023-03-11T02:06:24.117Z,2.81
2023-03-11T02:07:23.433Z,2.82
2023-03-11T02:08:25.376Z,2.82
2023-03-11T02:09:23.421Z,2.83
2023-03-11T02:10:24.069Z,2.84
2023-03-11T02:11:24.056Z,2.85
2023-03-11T02:12:23.380Z,2.86
2023-03-11T02:13:23.371Z,2.86
2023-03-11T02:14:23.359Z,2.86
2023-03-11T02:15:24.018Z,2.87
2023-03-11T02:16:24.029Z,2.89
2023-03-11T02:17:23.318Z,2.89
2023-03-11T02:18:23.983Z,2.90
2023-03-11T02:19:23.319Z,2.89
2023-03-11T02:20:23.967Z,2.90
2023-03-11T02:21:23.961Z,2.90
2023-03-11T02:22:23.953Z,2.91
2023-03-11T02:23:23.935Z,2.90
2023-03-11T02:24:25.203Z,2.90
2023-03-11T02:25:23.917Z,2.90
2023-03-11T02:26:23.914Z,2.91
2023-03-11T02:27:23.907Z,2.89
2023-03-11T02:28:23.888Z,2.89
2023-03-11T02:29:23.858Z,2.88
2023-03-11T02:30:23.187Z,2.88
2023-03-11T02:31:23.214Z,2.87
2023-03-11T02:32:23.244Z,2.84
2023-03-11T02:33:23.178Z,2.84
2023-03-11T02:34:23.810Z,2.83
2023-03-11T02:35:23.174Z,2.81
2023-03-11T02:36:23.810Z,2.79
2023-03-11T02:37:23.131Z,2.77
2023-03-11T02:38:23.115Z,2.75
2023-03-11T02:39:23.759Z,2.73
2023-03-11T02:40:23.078Z,2.70
2023-03-11T02:41:23.061Z,2.67
2023-03-11T02:42:23.068Z,2.65
2023-03-11T02:43:24.004Z,2.63
2023-03-11T02:44:23.709Z,2.60
2023-03-11T02:45:23.716Z,2.57
2023-03-11T02:46:23.745Z,2.56
2023-03-11T02:47:23.688Z,2.53
2023-03-11T02:48:23.677Z,2.52
2023-03-11T02:49:23.008Z,2.50
2023-03-11T02:50:23.669Z,2.50
2023-03-11T02:51:23.646Z,2.47
2023-03-11T02:52:23.638Z,2.46
2023-03-11T02:53:22.950Z,2.44
2023-03-11T02:54:23.602Z,2.44
2023-03-11T02:55:22.928Z,2.41
2023-03-11T02:56:23.596Z,2.40
2023-03-11T02:57:23.589Z,2.38
2023-03-11T02:58:23.575Z,2.36
2023-03-11T02:59:23.546Z,2.34
2023-03-11T03:00:22.861Z,2.33
2023-03-11T03:01:23.535Z,2.31
2023-03-11T03:02:23.538Z,2.30
2023-03-11T03:03:23.517Z,2.29
2023-03-11T03:04:23.538Z,2.29
2023-03-11T03:05:22.822Z,2.27
2023-03-11T03:06:23.483Z,2.27
2023-03-11T03:07:22.806Z,2.26
2023-03-11T03:08:23.465Z,2.26
2023-03-11T03:09:23.433Z,2.25
2023-03-11T03:10:23.445Z,2.25
2023-03-11T03:11:23.441Z,2.24
2023-03-11T03:12:22.746Z,2.23
2023-03-11T03:13:22.735Z,2.23
2023-03-11T03:14:23.386Z,2.21
2023-03-11T03:15:23.384Z,2.21
2023-03-11T03:16:23.388Z,2.20
2023-03-11T03:17:23.396Z,2.19
2023-03-11T03:18:23.355Z,2.20
2023-03-11T03:19:23.346Z,2.20
2023-03-11T03:20:22.708Z,2.20
2023-03-11T03:21:22.655Z,2.20
2023-03-11T03:22:23.316Z,2.21
2023-03-11T03:23:23.307Z,2.22
2023-03-11T03:24:22.632Z,2.23
2023-03-11T03:25:22.629Z,2.24
2023-03-11T03:26:22.640Z,2.25
2023-03-11T03:27:23.265Z,2.25
2023-03-11T03:28:23.256Z,2.25
2023-03-11T03:29:23.227Z,2.27
2023-03-11T03:30:23.242Z,2.28
2023-03-11T03:31:23.295Z,2.28
2023-03-11T03:32:23.239Z,2.29
2023-03-11T03:33:23.207Z,2.31
2023-03-11T03:34:23.178Z,2.32
2023-03-11T03:35:22.523Z,2.34
2023-03-11T03:36:23.170Z,2.36
2023-03-11T03:37:23.158Z,2.37
2023-03-11T03:38:23.158Z,2.38
2023-03-11T03:39:23.118Z,2.40
2023-03-11T03:40:23.135Z,2.42
2023-03-11T03:41:22.434Z,2.44
2023-03-11T03:42:24.357Z,2.46
2023-03-11T03:43:23.102Z,2.47
2023-03-11T03:44:23.073Z,2.48
2023-03-11T03:45:23.078Z,2.49
2023-03-11T03:46:22.436Z,2.50
2023-03-11T03:47:23.280Z,2.50
2023-03-11T03:48:23.051Z,2.51
2023-03-11T03:49:22.373Z,2.52
2023-03-11T03:50:23.039Z,2.52
2023-03-11T03:51:23.021Z,2.53
2023-03-11T03:52:23.011Z,2.54
2023-03-11T03:53:22.991Z,2.54
2023-03-11T03:54:22.321Z,2.54
2023-03-11T03:55:22.981Z,2.56
2023-03-11T03:56:23.241Z,2.55
2023-03-11T03:57:24.234Z,2.56
2023-03-11T03:58:22.948Z,2.57
2023-03-11T03:59:22.279Z,2.57
2023-03-11T04:00:22.224Z,2.58
2023-03-11T04:01:22.928Z,2.59
2023-03-11T04:02:22.975Z,2.59
2023-03-11T04:03:22.948Z,2.60
2023-03-11T04:04:22.228Z,2.60
2023-03-11T04:05:22.182Z,2.61
2023-03-11T04:06:22.196Z,2.62
2023-03-11T04:07:22.854Z,2.64
2023-03-11T04:08:22.844Z,2.63
2023-03-11T04:09:22.816Z,2.64
2023-03-11T04:10:22.840Z,2.65
2023-03-11T04:11:22.813Z,2.66
2023-03-11T04:12:22.798Z,2.66
2023-03-11T04:13:22.788Z,2.66
2023-03-11T04:14:22.751Z,2.67
2023-03-11T04:15:22.759Z,2.67
2023-03-11T04:16:22.857Z,2.68
2023-03-11T04:17:22.086Z,2.68
2023-03-11T04:18:22.069Z,2.68
2023-03-11T04:19:22.081Z,2.68
2023-03-11T04:20:22.077Z,2.69
2023-03-11T04:21:22.704Z,2.67
2023-03-11T04:22:22.028Z,2.67
2023-03-11T04:23:22.689Z,2.68
2023-03-11T04:24:23.929Z,2.67
2023-03-11T04:25:22.649Z,2.68
2023-03-11T04:26:22.650Z,2.67
2023-03-11T04:27:21.958Z,2.67
2023-03-11T04:28:21.942Z,2.67
2023-03-11T04:29:22.622Z,2.66
2023-03-11T04:30:21.948Z,2.66
2023-03-11T04:31:21.947Z,2.65
2023-03-11T04:32:21.929Z,2.64
2023-03-11T04:33:22.578Z,2.64
2023-03-11T04:34:21.894Z,2.63
2023-03-11T04:35:22.637Z,2.62
2023-03-11T04:36:22.549Z,2.61
2023-03-11T04:37:22.553Z,2.60
2023-03-11T04:38:22.525Z,2.59
2023-03-11T04:39:22.518Z,2.59
2023-03-11T04:40:22.485Z,2.58
2023-03-11T04:41:21.795Z,2.58
2023-03-11T04:42:22.480Z,2.58
2023-03-11T04:43:22.465Z,2.57
2023-03-11T04:44:21.765Z,2.57
2023-03-11T04:45:22.435Z,2.56
2023-03-11T04:46:22.619Z,2.56
2023-03-11T04:47:21.742Z,2.55
2023-03-11T04:48:22.416Z,2.52
2023-03-11T04:49:22.405Z,2.50
2023-03-11T04:50:22.374Z,2.48
2023-03-11T04:51:22.386Z,2.46
2023-03-11T04:52:22.373Z,2.43
2023-03-11T04:53:21.678Z,2.39
2023-03-11T04:54:21.686Z,2.35
2023-03-11T04:55:22.322Z,2.31
2023-03-11T04:56:22.338Z,2.27
2023-03-11T04:57:22.324Z,2.22
2023-03-11T04:58:21.623Z,2.17
2023-03-11T04:59:22.304Z,2.12
2023-03-11T05:00:22.277Z,2.07
2023-03-11T05:01:22.361Z,2.03
2023-03-11T05:02:22.265Z,1.97
2023-03-11T05:03:22.313Z,1.92
2023-03-11T05:04:22.293Z,1.88
2023-03-11T05:05:21.561Z,1.82
2023-03-11T05:06:22.229Z,1.78
2023-03-11T05:07:22.215Z,1.74
2023-03-11T05:08:22.196Z,1.70
2023-03-11T05:09:22.204Z,1.66
2023-03-11T05:10:22.198Z,1.61
2023-03-11T05:11:22.174Z,1.57
2023-03-11T05:12:22.157Z,1.54
2023-03-11T05:13:21.457Z,1.50
2023-03-11T05:14:22.141Z,1.47
2023-03-11T05:15:22.114Z,1.45
2023-03-11T05:16:21.490Z,1.42
2023-03-11T05:17:22.120Z,1.39
2023-03-11T05:18:22.099Z,1.37
2023-03-11T05:19:21.413Z,1.34
2023-03-11T05:20:22.064Z,1.32
2023-03-11T05:21:21.379Z,1.30
2023-03-11T05:22:21.390Z,1.27
2023-03-11T05:23:22.054Z,1.25
2023-03-11T05:24:22.072Z,1.23
2023-03-11T05:25:21.393Z,1.21
2023-03-11T05:26:22.010Z,1.18
2023-03-11T05:27:22.010Z,1.15
2023-03-11T05:28:21.318Z,1.14
2023-03-11T05:29:21.979Z,1.11
2023-03-11T05:30:21.308Z,1.09
2023-03-11T05:31:22.019Z,1.07
2023-03-11T05:32:21.997Z,1.05
2023-03-11T05:33:21.947Z,1.03
2023-03-11T05:34:21.262Z,1.01
2023-03-11T05:35:21.311Z,0.98
2023-03-11T05:36:21.911Z,0.96
2023-03-11T05:37:21.899Z,0.94
2023-03-11T05:38:21.212Z,0.92
2023-03-11T05:39:21.203Z,0.89
2023-03-11T05:40:21.857Z,0.88
2023-03-11T05:41:21.867Z,0.87
2023-03-11T05:42:22.611Z,0.84
2023-03-11T05:43:21.853Z,0.84
2023-03-11T05:44:21.842Z,0.83
2023-03-11T05:45:21.808Z,0.82
2023-03-11T05:46:21.180Z,0.81
2023-03-11T05:47:21.808Z,0.79
2023-03-11T05:48:21.794Z,0.79
2023-03-11T05:49:21.791Z,0.79
2023-03-11T05:50:21.760Z,0.78
2023-03-11T05:51:21.770Z,0.78
2023-03-11T05:52:21.066Z,0.77
2023-03-11T05:53:21.568Z,0.77
2023-03-11T05:54:21.051Z,0.76
2023-03-11T05:55:21.707Z,0.76
2023-03-11T05:56:21.065Z,0.76
2023-03-11T05:57:21.041Z,0.75
2023-03-11T05:58:21.101Z,0.76
2023-03-11T05:59:21.041Z,0.75
2023-03-11T06:00:21.653Z,0.76
2023-03-11T06:01:21.655Z,0.76
2023-03-11T06:02:21.646Z,0.77
2023-03-11T06:03:21.642Z,0.78
2023-03-11T06:04:21.084Z,0.78
2023-03-11T06:05:21.051Z,0.80
2023-03-11T06:06:21.607Z,0.81
2023-03-11T06:07:20.905Z,0.84
2023-03-11T06:08:21.585Z,0.85
2023-03-11T06:09:21.577Z,0.87
2023-03-11T06:10:20.884Z,0.88
2023-03-11T06:11:21.577Z,0.90
2023-03-11T06:12:21.544Z,0.93
2023-03-11T06:13:20.845Z,0.94
2023-03-11T06:14:21.525Z,0.96
2023-03-11T06:15:21.496Z,0.98
2023-03-11T06:16:21.556Z,1.01
2023-03-11T06:17:21.489Z,1.04
2023-03-11T06:18:21.475Z,1.06
2023-03-11T06:19:20.788Z,1.09
2023-03-11T06:20:21.444Z,1.12
2023-03-11T06:21:20.760Z,1.14
2023-03-11T06:22:20.764Z,1.17
2023-03-11T06:23:21.436Z,1.21
2023-03-11T06:24:20.735Z,1.24
2023-03-11T06:25:21.389Z,1.28
2023-03-11T06:26:21.394Z,1.33
2023-03-11T06:27:21.394Z,1.36
2023-03-11T06:28:20.706Z,1.41
2023-03-11T06:29:20.678Z,1.44
2023-03-11T06:30:21.336Z,1.47
2023-03-11T06:31:21.371Z,1.50
2023-03-11T06:32:21.410Z,1.54
2023-03-11T06:33:20.636Z,1.57
2023-03-11T06:34:21.316Z,1.61
2023-03-11T06:35:20.649Z,1.64
2023-03-11T06:36:21.295Z,1.70
2023-03-11T06:37:21.291Z,1.74
2023-03-11T06:38:21.278Z,1.80
2023-03-11T06:39:20.570Z,1.88
2023-03-11T06:40:20.584Z,1.94
2023-03-11T06:41:21.246Z,2.02
2023-03-11T06:42:21.236Z,2.08
2023-03-11T06:43:21.218Z,2.17
2023-03-11T06:44:20.522Z,2.24
2023-03-11T06:45:21.178Z,2.33
2023-03-11T06:46:20.638Z,2.42
2023-03-11T06:47:21.179Z,2.52
2023-03-11T06:48:21.167Z,2.66
2023-03-11T06:49:21.160Z,2.92
2023-03-11T06:50:21.142Z,3.27
2023-03-11T06:51:20.437Z,3.65
2023-03-11T06:52:21.127Z,4.05
2023-03-11T06:53:21.214Z,4.51
2023-03-11T06:54:20.421Z,5.04
2023-03-11T06:55:20.417Z,5.59
2023-03-11T06:56:21.118Z,6.12
2023-03-11T06:57:20.390Z,6.60
2023-03-11T06:58:21.060Z,6.99
2023-03-11T06:59:21.054Z,7.33
2023-03-11T07:00:21.037Z,7.64
2023-03-11T07:01:21.092Z,7.98
2023-03-11T07:02:21.025Z,8.36
2023-03-11T07:03:20.329Z,8.83
2023-03-11T07:04:20.351Z,9.29
2023-03-11T07:05:20.329Z,9.73
2023-03-11T07:06:20.979Z,10.18
2023-03-11T07:07:20.972Z,10.61
2023-03-11T07:08:20.960Z,11.03
2023-03-11T07:09:21.171Z,11.41
2023-03-11T07:10:20.380Z,11.79
2023-03-11T07:11:20.292Z,12.14
2023-03-11T07:12:20.918Z,12.48
2023-03-11T07:13:20.909Z,12.80
2023-03-11T07:14:22.168Z,13.11
2023-03-11T07:15:20.868Z,13.42
2023-03-11T07:16:20.215Z,13.72
2023-03-11T07:17:21.300Z,14.00
2023-03-11T07:18:21.170Z,14.25
2023-03-11T07:19:20.858Z,14.51
2023-03-11T07:20:20.290Z,14.77
2023-03-11T07:21:21.201Z,15.00
2023-03-11T07:22:20.122Z,15.21
2023-03-11T07:23:20.809Z,15.40
2023-03-11T07:24:21.091Z,15.61
2023-03-11T07:25:20.793Z,15.81
2023-03-11T07:26:20.758Z,16.00
2023-03-11T07:27:20.905Z,16.16
2023-03-11T07:28:20.220Z,16.34
2023-03-11T07:29:20.064Z,16.53
2023-03-11T07:30:20.617Z,16.73
2023-03-11T07:31:21.116Z,16.92
2023-03-11T07:32:35.487Z,17.08
2023-03-11T07:33:20.888Z,17.23
2023-03-11T07:34:20.012Z,17.35
2023-03-11T07:35:20.677Z,17.50
2023-03-11T07:36:20.652Z,17.64
2023-03-11T07:37:20.654Z,17.77
2023-03-11T07:38:19.959Z,17.89
2023-03-11T07:39:20.633Z,18.02
2023-03-11T07:40:21.224Z,18.13
2023-03-11T07:41:20.585Z,18.23
2023-03-11T07:42:20.714Z,18.31
2023-03-11T07:43:20.999Z,18.42
2023-03-11T07:44:20.582Z,18.57
2023-03-11T07:45:20.817Z,18.74
2023-03-11T07:46:20.580Z,18.92
2023-03-11T07:47:20.848Z,19.10
2023-03-11T07:48:20.743Z,19.31
2023-03-11T07:49:20.539Z,19.55
2023-03-11T07:50:19.828Z,19.76
2023-03-11T07:51:19.829Z,19.92
2023-03-11T07:52:19.809Z,20.11
2023-03-11T07:53:20.480Z,20.31
2023-03-11T07:54:19.855Z,20.50
2023-03-11T07:55:21.283Z,20.68
2023-03-11T07:56:20.149Z,20.88
2023-03-11T07:57:20.823Z,21.07
2023-03-11T07:58:20.420Z,21.24
2023-03-11T07:59:20.411Z,21.37
2023-03-11T08:00:20.541Z,21.52
2023-03-11T08:01:20.428Z,21.70
2023-03-11T08:02:19.873Z,21.88
2023-03-11T08:03:19.824Z,22.00
2023-03-11T08:04:20.361Z,22.05
2023-03-11T08:05:20.340Z,22.25
2023-03-11T08:06:20.321Z,22.39
2023-03-11T08:07:19.639Z,22.54
2023-03-11T08:08:19.634Z,22.73
2023-03-11T08:09:20.302Z,22.92
2023-03-11T08:10:20.307Z,23.10
2023-03-11T08:11:20.266Z,23.26
2023-03-11T08:12:20.275Z,23.35
2023-03-11T08:13:19.574Z,23.43
2023-03-11T08:14:20.291Z,23.53
2023-03-11T08:15:20.244Z,23.65
2023-03-11T08:16:20.221Z,23.79
2023-03-11T08:17:20.225Z,23.94
2023-03-11T08:18:20.206Z,24.10
2023-03-11T08:19:20.201Z,24.25
2023-03-11T08:20:19.514Z,24.40
2023-03-11T08:21:20.157Z,24.54
2023-03-11T08:22:20.173Z,24.68
2023-03-11T08:23:20.169Z,24.78
2023-03-11T08:24:19.482Z,24.91
2023-03-11T08:25:19.459Z,25.00
2023-03-11T08:26:19.464Z,25.06
2023-03-11T08:27:20.311Z,25.10
2023-03-11T08:28:20.175Z,25.12
2023-03-11T08:29:20.096Z,25.18
2023-03-11T08:30:20.080Z,25.28
2023-03-11T08:31:20.098Z,25.35
2023-03-11T08:32:20.079Z,25.47
2023-03-11T08:33:19.386Z,25.59
2023-03-11T08:34:20.049Z,25.71
2023-03-11T08:35:20.027Z,25.85
2023-03-11T08:36:20.008Z,25.99
2023-03-11T08:37:20.011Z,26.06
2023-03-11T08:38:19.989Z,26.11
2023-03-11T08:39:19.325Z,26.17
2023-03-11T08:40:19.290Z,26.20
2023-03-11T08:41:19.994Z,26.26
2023-03-11T08:42:19.267Z,26.31
2023-03-11T08:43:19.941Z,26.34
2023-03-11T08:44:19.250Z,26.40
2023-03-11T08:45:19.232Z,26.46
2023-03-11T08:46:19.962Z,26.50
2023-03-11T08:47:19.231Z,26.53
2023-03-11T08:48:20.142Z,26.55
2023-03-11T08:49:19.872Z,26.59
2023-03-11T08:50:19.884Z,26.66
2023-03-11T08:51:19.215Z,26.71
2023-03-11T08:52:19.843Z,26.75
2023-03-11T08:53:19.205Z,26.80
2023-03-11T08:54:21.081Z,26.86
2023-03-11T08:55:19.125Z,26.92
2023-03-11T08:56:19.804Z,26.98
2023-03-11T08:57:19.787Z,27.05
2023-03-11T08:58:19.775Z,27.13
2023-03-11T08:59:19.780Z,27.16
2023-03-11T09:00:19.077Z,27.19
2023-03-11T09:01:19.716Z,27.20
2023-03-11T09:02:19.744Z,27.18
2023-03-11T09:03:19.729Z,27.17
2023-03-11T09:04:19.028Z,27.16
2023-03-11T09:05:19.018Z,27.13
2023-03-11T09:06:19.016Z,27.11
2023-03-11T09:07:19.658Z,27.07
2023-03-11T09:08:19.672Z,27.00
2023-03-11T09:09:19.662Z,26.86
2023-03-11T09:10:19.645Z,26.79
2023-03-11T09:11:18.947Z,26.77
2023-03-11T09:12:19.609Z,26.76
2023-03-11T09:13:18.956Z,26.74
2023-03-11T09:14:19.603Z,26.66
2023-03-11T09:15:19.592Z,26.11
2023-03-11T09:16:19.678Z,25.68
2023-03-11T09:17:19.548Z,25.61
2023-03-11T09:18:19.557Z,25.58
2023-03-11T09:19:18.879Z,25.49
2023-03-11T09:20:19.557Z,25.41
2023-03-11T09:21:18.873Z,25.32
2023-03-11T09:22:19.511Z,25.25
2023-03-11T09:23:19.505Z,25.14
2023-03-11T09:24:19.495Z,25.02
2023-03-11T09:25:19.483Z,24.93
2023-03-11T09:26:19.481Z,24.81
2023-03-11T09:27:19.443Z,24.66
2023-03-11T09:28:19.453Z,24.49
2023-03-11T09:29:18.753Z,24.36
2023-03-11T09:30:18.763Z,24.24
2023-03-11T09:31:19.468Z,24.13
2023-03-11T09:32:18.753Z,24.04
2023-03-11T09:33:19.408Z,23.91
2023-03-11T09:34:18.697Z,23.79
2023-03-11T09:35:18.687Z,23.69
2023-03-11T09:36:18.674Z,23.62
2023-03-11T09:37:18.683Z,23.55
2023-03-11T09:38:19.346Z,23.49
2023-03-11T09:39:19.259Z,23.41
2023-03-11T09:40:19.327Z,23.31
2023-03-11T09:41:18.645Z,23.23
2023-03-11T09:42:18.639Z,23.12
2023-03-11T09:43:19.293Z,23.01
2023-03-11T09:44:18.590Z,22.92
2023-03-11T09:45:19.281Z,22.83
2023-03-11T09:46:19.288Z,22.72
2023-03-11T09:47:19.230Z,22.63
2023-03-11T09:48:20.528Z,22.54
2023-03-11T09:49:19.236Z,22.47
2023-03-11T09:50:19.212Z,22.31
2023-03-11T09:51:18.570Z,22.16
2023-03-11T09:52:19.255Z,22.05
2023-03-11T09:53:18.504Z,21.96
2023-03-11T09:54:19.176Z,21.89
2023-03-11T09:55:18.496Z,21.85
2023-03-11T09:56:19.147Z,21.79
2023-03-11T09:57:19.121Z,21.73
2023-03-11T09:58:18.460Z,21.66
2023-03-11T09:59:19.128Z,21.57
2023-03-11T10:00:19.111Z,21.48
2023-03-11T10:01:19.100Z,21.36
2023-03-11T10:02:18.607Z,21.23
2023-03-11T10:03:19.168Z,21.11
2023-03-11T10:04:18.479Z,20.98
2023-03-11T10:05:18.384Z,20.83
2023-03-11T10:06:19.045Z,20.72
2023-03-11T10:07:18.363Z,20.60
2023-03-11T10:08:19.023Z,20.51
2023-03-11T10:09:18.344Z,20.42
2023-03-11T10:10:18.320Z,20.35
2023-03-11T10:11:18.990Z,20.27
2023-03-11T10:12:18.304Z,20.21
2023-03-11T10:13:18.972Z,20.20
2023-03-11T10:14:18.283Z,20.19
2023-03-11T10:15:18.256Z,20.18
2023-03-11T10:16:18.965Z,20.18
2023-03-11T10:17:18.262Z,20.16
2023-03-11T10:18:18.235Z,20.11
2023-03-11T10:19:18.905Z,20.07
2023-03-11T10:20:18.893Z,20.01
2023-03-11T10:21:18.198Z,19.92
2023-03-11T10:22:18.212Z,19.84
2023-03-11T10:23:18.864Z,19.72
2023-03-11T10:24:18.848Z,19.57
2023-03-11T10:25:18.837Z,19.40
2023-03-11T10:26:18.832Z,19.23
2023-03-11T10:27:18.148Z,19.08
2023-03-11T10:28:18.123Z,18.91
2023-03-11T10:29:18.807Z,18.75
2023-03-11T10:30:18.788Z,18.59
2023-03-11T10:31:18.139Z,18.41
2023-03-11T10:32:18.799Z,18.24
2023-03-11T10:33:18.064Z,18.05
2023-03-11T10:34:18.071Z,17.78
2023-03-11T10:35:18.080Z,17.48
2023-03-11T10:36:18.718Z,17.16
2023-03-11T10:37:18.690Z,16.84
2023-03-11T10:38:18.016Z,16.55
2023-03-11T10:39:18.683Z,16.27
2023-03-11T10:40:18.060Z,16.02
2023-03-11T10:41:18.665Z,15.75
2023-03-11T10:42:18.042Z,15.51
2023-03-11T10:43:18.641Z,15.28
2023-03-11T10:44:17.985Z,15.06
2023-03-11T10:45:18.623Z,14.85
2023-03-11T10:46:18.002Z,14.67
2023-03-11T10:47:18.580Z,14.49
2023-03-11T10:48:18.585Z,14.32
2023-03-11T10:49:17.954Z,14.14
2023-03-11T10:50:17.921Z,13.99
2023-03-11T10:51:18.563Z,13.82
2023-03-11T10:52:17.901Z,13.66
2023-03-11T10:53:17.901Z,13.52
2023-03-11T10:54:18.526Z,13.38
2023-03-11T10:55:17.844Z,13.25
2023-03-11T10:56:17.815Z,13.13
2023-03-11T10:57:17.825Z,13.02
2023-03-11T10:58:17.816Z,12.90
2023-03-11T10:59:18.466Z,12.76
2023-03-11T11:00:18.459Z,12.62
2023-03-11T11:01:17.856Z,12.48
2023-03-11T11:02:18.424Z,12.35
2023-03-11T11:03:18.428Z,12.21
2023-03-11T11:04:18.442Z,12.07
2023-03-11T11:05:17.725Z,11.92
2023-03-11T11:06:18.406Z,11.77
2023-03-11T11:07:18.371Z,11.65
2023-03-11T11:08:18.371Z,11.54
2023-03-11T11:09:18.381Z,11.42
2023-03-11T11:10:18.399Z,11.30
2023-03-11T11:11:18.351Z,11.19
2023-03-11T11:12:17.681Z,11.10
2023-03-11T11:13:17.723Z,11.00
2023-03-11T11:14:18.318Z,10.92
2023-03-11T11:15:18.302Z,10.84
2023-03-11T11:16:17.678Z,10.76
2023-03-11T11:17:18.263Z,10.68
2023-03-11T11:18:18.265Z,10.61
2023-03-11T11:19:17.586Z,10.54
2023-03-11T11:20:17.585Z,10.47
2023-03-11T11:21:17.577Z,10.41
2023-03-11T11:22:17.573Z,10.33
2023-03-11T11:23:18.215Z,10.26
2023-03-11T11:24:18.210Z,10.18
2023-03-11T11:25:17.519Z,10.10
2023-03-11T11:26:18.187Z,10.04
2023-03-11T11:27:18.171Z,10.01
2023-03-11T11:28:18.166Z,9.97
2023-03-11T11:29:18.156Z,9.91
2023-03-11T11:30:17.460Z,9.87
2023-03-11T11:31:18.150Z,9.83
2023-03-11T11:32:17.501Z,9.81
2023-03-11T11:33:17.439Z,9.78
2023-03-11T11:34:18.098Z,9.77
2023-03-11T11:35:18.113Z,9.74
2023-03-11T11:36:17.392Z,9.72
2023-03-11T11:37:18.048Z,9.70
2023-03-11T11:38:18.081Z,9.68
2023-03-11T11:39:18.046Z,9.66
2023-03-11T11:40:18.098Z,9.65
2023-03-11T11:41:18.025Z,9.63
2023-03-11T11:42:17.996Z,9.63
2023-03-11T11:43:18.020Z,9.62
2023-03-11T11:44:17.995Z,9.61
2023-03-11T11:45:18.017Z,9.60
2023-03-11T11:46:18.056Z,9.60
2023-03-11T11:47:17.944Z,9.59
2023-03-11T11:48:17.956Z,9.58
2023-03-11T11:49:17.938Z,9.58
2023-03-11T11:50:18.033Z,9.57
2023-03-11T11:51:17.248Z,9.57
2023-03-11T11:52:17.227Z,9.56
2023-03-11T11:53:17.893Z,9.55
2023-03-11T11:54:17.886Z,9.54
2023-03-11T11:55:17.203Z,9.55
2023-03-11T11:56:17.858Z,9.56
2023-03-11T11:57:17.898Z,9.56
2023-03-11T11:58:17.837Z,9.57
2023-03-11T11:59:17.826Z,9.56
2023-03-11T12:00:17.160Z,9.57
2023-03-11T12:01:17.136Z,9.57
2023-03-11T12:02:17.808Z,9.58
2023-03-11T12:03:17.852Z,9.60
2023-03-11T12:04:17.078Z,9.62
2023-03-11T12:05:17.095Z,9.65
2023-03-11T12:06:17.062Z,9.66
2023-03-11T12:07:17.739Z,9.69
2023-03-11T12:08:17.062Z,9.70
2023-03-11T12:09:17.731Z,9.74
2023-03-11T12:10:23.243Z,9.79
2023-03-11T12:11:18.012Z,9.86
2023-03-11T12:12:17.029Z,9.92
2023-03-11T12:13:17.028Z,9.98
2023-03-11T12:14:16.999Z,10.05
2023-03-11T12:15:16.993Z,10.11
2023-03-11T12:16:17.684Z,10.18
2023-03-11T12:17:16.991Z,10.22
2023-03-11T12:18:17.612Z,10.26
2023-03-11T12:19:17.621Z,10.29
2023-03-11T12:20:17.899Z,10.30
2023-03-11T12:21:17.601Z,10.31
2023-03-11T12:22:16.910Z,10.33
2023-03-11T12:23:17.558Z,10.36
2023-03-11T12:24:16.883Z,10.38
2023-03-11T12:25:17.551Z,10.39
2023-03-11T12:26:17.540Z,10.39
2023-03-11T12:27:17.532Z,10.39
2023-03-11T12:28:17.505Z,10.37
2023-03-11T12:29:17.516Z,10.36
2023-03-11T12:30:16.822Z,10.39
2023-03-11T12:31:16.859Z,10.44
2023-03-11T12:32:17.518Z,10.49
2023-03-11T12:33:16.828Z,10.57
2023-03-11T12:34:17.481Z,10.66
2023-03-11T12:35:17.447Z,10.73
2023-03-11T12:36:16.809Z,10.77
2023-03-11T12:37:17.690Z,10.82
2023-03-11T12:38:16.756Z,10.86
2023-03-11T12:39:16.757Z,10.89
2023-03-11T12:40:17.395Z,10.92
2023-03-11T12:41:17.780Z,10.96
2023-03-11T12:42:16.693Z,10.97
2023-03-11T12:43:16.706Z,10.96
2023-03-11T12:44:17.433Z,10.92
2023-03-11T12:45:17.369Z,10.88
2023-03-11T12:46:17.445Z,10.85
2023-03-11T12:47:17.344Z,10.83
2023-03-11T12:48:16.639Z,10.84
2023-03-11T12:49:17.297Z,10.87
2023-03-11T12:50:17.288Z,10.87
2023-03-11T12:51:16.631Z,10.90
2023-03-11T12:52:16.583Z,10.94
2023-03-11T12:53:17.299Z,10.98
2023-03-11T12:54:17.259Z,11.01
2023-03-11T12:55:17.234Z,11.02
2023-03-11T12:56:17.220Z,11.01
2023-03-11T12:57:17.219Z,10.99
2023-03-11T12:58:17.188Z,11.00
2023-03-11T12:59:16.534Z,11.00
2023-03-11T13:00:16.528Z,10.97
2023-03-11T13:01:16.493Z,10.96
2023-03-11T13:02:17.160Z,10.95
2023-03-11T13:03:16.523Z,10.96
2023-03-11T13:04:17.142Z,10.98
2023-03-11T13:05:17.146Z,10.99
2023-03-11T13:06:17.113Z,10.95
2023-03-11T13:07:17.111Z,10.90